Time;durP1;ratioP1;P1;durP2;ratioP2;P2;SDS_P1;SDS_P2;PMS_P1;PMS_P2;Temp;Humidity;BMP_temperature;BMP_pressure;BME280_temperature;BME280_humidity;BME280_pressure;Samples;Min_cycle;Max_cycle;Signal;HPM_P1;HPM_P2
2021/08/20 00:00:00;;;;;;;6.90;3.65;;;;;;;14.80;100.00;95861.50;1034632;28;20041;-70
2021/08/20 00:00:30;;;;;;;8.63;3.95;;;;;;;14.74;100.00;95849.41;1034433;28;20021;-69
2021/08/20 00:01:01;;;;;;;4.47;3.50;;;;;;;14.79;100.00;95861.78;1030761;28;20026;-70
2021/08/20 00:01:31;;;;;;;3.83;3.50;;;;;;;14.78;100.00;95857.56;1030564;28;20031;-69
2021/08/20 00:02:02;;;;;;;4.10;3.70;;;;;;;14.74;100.00;95856.56;1035147;28;20033;-70
2021/08/20 00:02:32;;;;;;;5.55;4.10;;;;;;;14.76;100.00;95857.84;1031638;28;20594;-71
2021/08/20 00:03:03;;;;;;;4.55;3.90;;;;;;;14.76;100.00;95863.13;1033390;28;20109;-70
2021/08/20 00:03:34;;;;;;;5.18;4.20;;;;;;;14.69;100.00;95851.34;1039204;28;20025;-70
2021/08/20 00:04:06;;;;;;;5.13;4.00;;;;;;;14.73;100.00;95853.13;1031508;28;20030;-69
2021/08/20 00:04:37;;;;;;;5.28;3.95;;;;;;;14.73;100.00;95861.06;1031155;28;20046;-72
2021/08/20 00:05:08;;;;;;;4.40;4.00;;;;;;;14.72;100.00;95862.16;1031282;28;20399;-70
2021/08/20 00:05:38;;;;;;;8.60;4.18;;;;;;;14.71;100.00;95859.78;1031456;28;20052;-70
2021/08/20 00:06:08;;;;;;;6.43;4.38;;;;;;;14.70;100.00;95868.78;1035427;28;20112;-70
2021/08/20 00:06:39;;;;;;;5.10;3.78;;;;;;;14.68;100.00;95855.84;1035306;28;20021;-70
2021/08/20 00:07:09;;;;;;;4.05;3.65;;;;;;;14.68;100.00;95863.75;1039340;28;20522;-70
2021/08/20 00:07:40;;;;;;;4.35;3.83;;;;;;;14.68;100.00;95861.13;1039240;28;20036;-71
2021/08/20 00:08:10;;;;;;;6.70;3.53;;;;;;;14.66;100.00;95860.63;1039662;28;20029;-70
2021/08/20 00:08:41;;;;;;;4.57;4.18;;;;;;;14.64;100.00;95859.34;1040723;28;20037;-70
2021/08/20 00:09:11;;;;;;;6.07;4.40;;;;;;;14.64;100.00;95864.63;1039246;28;20029;-70
2021/08/20 00:09:42;;;;;;;4.10;3.70;;;;;;;14.64;100.00;95865.41;1039500;28;20026;-71
2021/08/20 00:10:12;;;;;;;5.05;3.88;;;;;;;14.60;100.00;95861.78;1035533;28;20103;-70
2021/08/20 00:10:42;;;;;;;4.40;4.00;;;;;;;14.59;100.00;95862.84;1035224;28;20033;-70
2021/08/20 00:11:13;;;;;;;7.22;3.83;;;;;;;14.57;100.00;95867.63;1039267;28;20025;-69
2021/08/20 00:11:43;;;;;;;4.68;4.20;;;;;;;14.56;100.00;95869.47;1038870;28;20025;-71
2021/08/20 00:12:14;;;;;;;5.28;4.13;;;;;;;14.56;100.00;95866.06;1043801;28;20025;-70
2021/08/20 00:12:44;;;;;;;4.15;3.75;;;;;;;14.56;100.00;95866.06;1039332;28;20021;-70
2021/08/20 00:13:15;;;;;;;5.85;3.78;;;;;;;14.55;100.00;95865.28;1035357;28;20026;-70
2021/08/20 00:13:45;;;;;;;5.13;4.60;;;;;;;14.52;100.00;95873.75;1035253;28;20579;-69
2021/08/20 00:14:16;;;;;;;4.45;4.03;;;;;;;14.48;100.00;95867.44;1035347;28;20033;-70
2021/08/20 00:14:46;;;;;;;4.85;4.00;;;;;;;14.52;100.00;95872.94;1035235;28;20486;-70
2021/08/20 00:15:17;;;;;;;4.93;3.80;;;;;;;14.51;100.00;95869.53;1031237;28;20384;-69
2021/08/20 00:15:47;;;;;;;7.05;4.30;;;;;;;14.49;100.00;95874.28;1031415;28;20057;-70
2021/08/20 00:16:18;;;;;;;8.95;3.88;;;;;;;14.51;100.00;95866.09;1036291;28;20815;-70
2021/08/20 00:16:48;;;;;;;5.57;3.53;;;;;;;14.51;100.00;95874.81;1035342;28;20022;-69
2021/08/20 00:17:19;;;;;;;4.93;3.92;;;;;;;14.53;100.00;95877.19;1035401;28;20026;-69
2021/08/20 00:17:50;;;;;;;4.85;4.18;;;;;;;14.53;100.00;95869.25;1035228;28;20032;-69
2021/08/20 00:18:20;;;;;;;4.35;3.88;;;;;;;14.51;100.00;95871.38;1039066;28;20025;-69
2021/08/20 00:18:51;;;;;;;5.55;4.53;;;;;;;14.51;100.00;95874.03;1039362;28;20025;-69
2021/08/20 00:19:21;;;;;;;5.07;4.57;;;;;;;14.49;100.00;95873.50;1035288;28;20045;-70
2021/08/20 00:19:52;;;;;;;6.60;4.15;;;;;;;14.48;100.00;95875.34;1037241;28;20037;-70
2021/08/20 00:20:22;;;;;;;4.97;4.15;;;;;;;14.49;100.00;95879.59;1034981;28;20021;-70
2021/08/20 00:20:52;;;;;;;7.63;4.03;;;;;;;14.50;100.00;95875.88;1036663;28;20030;-70
2021/08/20 00:21:23;;;;;;;4.82;4.15;;;;;;;14.50;100.00;95870.59;1039715;28;20121;-69
2021/08/20 00:21:53;;;;;;;4.82;4.13;;;;;;;14.51;100.00;95866.88;1038525;28;20075;-69
2021/08/20 00:22:24;;;;;;;4.72;3.90;;;;;;;14.34;100.00;95846.22;1035184;28;20018;-70
2021/08/20 00:22:54;;;;;;;4.80;4.10;;;;;;;14.53;100.00;95871.91;1039324;28;20014;-69
2021/08/20 00:23:25;;;;;;;5.18;4.50;;;;;;;14.56;100.00;95876.63;1035115;28;20017;-69
2021/08/20 00:23:55;;;;;;;4.45;4.05;;;;;;;14.54;100.00;95870.81;1035093;28;20519;-68
2021/08/20 00:24:25;;;;;;;7.65;4.57;;;;;;;14.55;100.00;95864.47;1039251;28;20045;-69
2021/08/20 00:24:56;;;;;;;5.20;4.18;;;;;;;14.56;100.00;95876.63;1031005;28;20055;-70
2021/08/20 00:25:26;;;;;;;7.90;4.45;;;;;;;14.57;100.00;95872.91;1031208;28;20030;-70
2021/08/20 00:25:57;;;;;;;6.88;4.03;;;;;;;14.57;100.00;95862.34;1034296;28;20021;-70
2021/08/20 00:26:27;;;;;;;4.80;4.28;;;;;;;14.57;100.00;95864.97;1034385;28;20137;-69
2021/08/20 00:26:58;;;;;;;5.28;4.60;;;;;;;14.56;100.00;95869.47;1037917;28;20083;-69
2021/08/20 00:27:28;;;;;;;4.93;4.43;;;;;;;14.58;100.00;95866.53;1029688;28;20025;-69
2021/08/20 00:27:58;;;;;;;6.25;4.57;;;;;;;14.56;100.00;95863.41;1027025;28;20018;-69
2021/08/20 00:28:29;;;;;;;9.77;4.70;;;;;;;14.58;100.00;95863.91;1027134;28;20505;-69
2021/08/20 00:28:59;;;;;;;6.53;3.95;;;;;;;14.56;100.00;95863.41;1031221;28;20555;-70
2021/08/20 00:29:30;;;;;;;5.35;4.28;;;;;;;14.57;100.00;95872.91;1035422;28;20431;-70
2021/08/20 00:30:00;;;;;;;5.70;4.03;;;;;;;14.58;100.00;95856.75;1039035;28;20044;-70
2021/08/20 00:30:31;;;;;;;6.60;3.72;;;;;;;14.59;100.00;95862.84;1039329;28;20052;-69
2021/08/20 00:31:01;;;;;;;9.35;4.13;;;;;;;14.59;100.00;95868.13;1039503;28;20506;-69
2021/08/20 00:31:32;;;;;;;4.55;4.00;;;;;;;14.60;100.00;95869.69;1039146;28;20126;-70
2021/08/20 00:32:02;;;;;;;7.18;4.32;;;;;;;14.61;100.00;95861.47;1038601;28;20022;-69
2021/08/20 00:32:34;;;;;;;4.88;4.38;;;;;;;14.63;100.00;95863.06;1039265;28;20036;-69
2021/08/20 00:33:05;;;;;;;6.32;4.20;;;;;;;14.63;100.00;95863.06;1031204;28;20025;-69
2021/08/20 00:33:36;;;;;;;4.53;4.13;;;;;;;14.63;100.00;95860.44;1031092;28;20026;-69
2021/08/20 00:34:07;;;;;;;5.35;4.22;;;;;;;14.65;100.00;95855.63;1023612;28;20049;-69
2021/08/20 00:34:37;;;;;;;4.80;4.05;;;;;;;14.64;100.00;95862.78;1027369;28;20436;-69
2021/08/20 00:35:08;;;;;;;5.53;4.35;;;;;;;14.65;100.00;95856.41;1031144;28;20641;-70
2021/08/20 00:35:39;;;;;;;4.20;3.80;;;;;;;14.66;100.00;95852.72;1031552;28;20018;-71
2021/08/20 00:36:09;;;;;;;4.60;4.18;;;;;;;14.66;100.00;95855.34;1039250;28;20027;-71
2021/08/20 00:36:39;;;;;;;4.22;3.83;;;;;;;14.67;100.00;95856.91;1039103;28;20033;-70
2021/08/20 00:37:10;;;;;;;5.45;4.10;;;;;;;14.65;100.00;95850.34;1039316;28;20022;-69
2021/08/20 00:37:40;;;;;;;5.43;4.22;;;;;;;14.68;100.00;95855.84;1035360;28;20387;-71
2021/08/20 00:38:11;;;;;;;6.03;4.13;;;;;;;14.68;100.00;95858.47;1039227;28;20029;-69
2021/08/20 00:38:41;;;;;;;4.60;4.00;;;;;;;14.69;100.00;95857.44;1038983;28;20076;-69
2021/08/20 00:39:12;;;;;;;5.22;4.18;;;;;;;14.70;100.00;95853.72;1035337;28;20025;-70
2021/08/20 00:39:42;;;;;;;5.25;3.85;;;;;;;14.66;100.00;95846.66;1035229;28;20026;-71
2021/08/20 00:40:13;;;;;;;5.18;4.05;;;;;;;14.71;100.00;95854.50;1031001;28;20068;-70
2021/08/20 00:40:43;;;;;;;6.00;3.72;;;;;;;14.71;100.00;95852.63;1031363;28;20518;-69
2021/08/20 00:41:14;;;;;;;4.63;4.20;;;;;;;14.73;100.00;95847.84;1034416;28;20435;-70
2021/08/20 00:41:46;;;;;;;4.70;4.30;;;;;;;14.73;100.00;95850.50;1034150;28;20022;-70
2021/08/20 00:42:17;;;;;;;4.35;3.55;;;;;;;14.75;100.00;95850.97;1039051;28;20510;-70
2021/08/20 00:42:47;;;;;;;4.22;3.80;;;;;;;14.69;100.00;95840.78;1039001;28;20060;-70
2021/08/20 00:43:18;;;;;;;5.45;3.95;;;;;;;14.75;100.00;95852.84;1031458;28;20025;-70
2021/08/20 00:43:48;;;;;;;4.53;4.05;;;;;;;14.58;100.00;95825.06;1027001;28;20559;-70
2021/08/20 00:44:21;;;;;;;5.07;4.07;;;;;;;14.77;100.00;95853.34;1027355;28;20035;-69
2021/08/20 00:44:51;;;;;;;4.63;3.55;;;;;;;14.75;100.00;95850.97;1027393;28;20133;-69
2021/08/20 00:45:22;;;;;;;4.10;3.70;;;;;;;14.76;100.00;95852.56;1031705;28;20031;-70
2021/08/20 00:46:10;;;;;;;6.05;3.78;;;;;;;14.70;100.00;95843.16;1031109;28;20030;-69
2021/08/20 00:46:41;;;;;;;4.20;3.80;;;;;;;14.77;100.00;95854.13;1029577;28;20658;-70
2021/08/20 00:47:12;;;;;;;8.23;3.85;;;;;;;14.76;100.00;95852.56;1027680;28;20018;-69
2021/08/20 00:47:42;;;;;;;5.72;3.45;;;;;;;14.76;100.00;95842.00;1031211;28;20147;-69
2021/08/20 00:48:13;;;;;;;3.97;3.58;;;;;;;14.77;100.00;95850.72;1023453;28;20045;-69
2021/08/20 00:48:43;;;;;;;5.60;3.70;;;;;;;14.76;100.00;95852.56;1027221;28;20022;-69
2021/08/20 00:49:14;;;;;;;5.13;3.97;;;;;;;14.76;100.00;95857.84;1026939;28;20027;-69
2021/08/20 00:49:46;;;;;;;4.38;3.97;;;;;;;14.75;100.00;95853.63;1031206;28;20534;-69
2021/08/20 00:50:16;;;;;;;5.57;3.92;;;;;;;14.76;100.00;95843.88;1027447;28;20043;-69
2021/08/20 00:50:48;;;;;;;5.88;3.80;;;;;;;14.78;100.00;95854.91;1025043;28;20027;-69
2021/08/20 00:51:27;;;;;;;4.22;3.65;;;;;;;14.75;100.00;95850.19;1027247;28;20131;-70
2021/08/20 00:51:57;;;;;;;4.90;3.42;;;;;;;14.77;100.00;95861.28;1023845;28;20062;-69
2021/08/20 00:52:31;;;;;;;4.22;3.58;;;;;;;14.78;100.00;95857.56;1025042;28;20034;-69
2021/08/20 00:53:01;;;;;;;4.35;3.80;;;;;;;14.79;100.00;95856.50;1031169;28;20103;-69
2021/08/20 00:53:33;;;;;;;4.15;3.75;;;;;;;14.79;100.00;95865.22;1027187;28;20504;-69
2021/08/20 00:54:08;;;;;;;4.05;3.35;;;;;;;14.77;100.00;95859.41;1028119;28;20091;-71
2021/08/20 00:54:39;;;;;;;5.75;3.72;;;;;;;14.77;100.00;95856.78;1027192;28;20019;-69
2021/08/20 00:55:10;;;;;;;4.32;3.85;;;;;;;14.78;100.00;95860.19;1029051;28;20054;-70
2021/08/20 00:55:40;;;;;;;4.68;4.00;;;;;;;14.78;100.00;95860.19;1036313;28;20384;-71
2021/08/20 00:56:11;;;;;;;4.72;3.35;;;;;;;14.79;100.00;95857.28;1030209;28;20034;-70
2021/08/20 00:56:42;;;;;;;5.65;3.63;;;;;;;14.78;100.00;95855.69;1036406;28;20034;-69
2021/08/20 00:57:12;;;;;;;4.57;3.33;;;;;;;14.78;100.00;95860.19;1036442;28;20116;-70
2021/08/20 00:57:47;;;;;;;4.97;3.70;;;;;;;14.77;100.00;95854.13;1036789;28;20034;-71
2021/08/20 00:58:18;;;;;;;4.63;3.80;;;;;;;14.77;100.00;95859.41;1036356;28;20018;-69
2021/08/20 00:58:48;;;;;;;4.40;3.30;;;;;;;14.76;100.00;95854.44;1029987;28;20681;-70
2021/08/20 00:59:19;;;;;;;3.97;3.65;;;;;;;14.76;100.00;95855.22;1027170;28;20668;-70
2021/08/20 00:59:49;;;;;;;4.35;3.95;;;;;;;14.73;100.00;95847.84;1025475;28;20461;-69
2021/08/20 01:00:20;;;;;;;4.25;3.80;;;;;;;14.75;100.00;95853.63;1023171;29;20021;-70
2021/08/20 01:00:50;;;;;;;7.13;4.22;;;;;;;14.67;100.00;95843.72;1023661;28;20034;-70
2021/08/20 01:01:21;;;;;;;6.35;4.07;;;;;;;14.72;100.00;95853.41;1028196;28;20149;-69
2021/08/20 01:01:51;;;;;;;5.13;4.22;;;;;;;14.71;100.00;95854.50;1034389;28;20026;-70
2021/08/20 01:02:22;;;;;;;5.22;4.07;;;;;;;14.59;100.00;95842.50;1035347;28;20030;-70
2021/08/20 01:02:53;;;;;;;4.18;3.80;;;;;;;14.66;100.00;95841.38;1027324;28;20433;-69
2021/08/20 01:03:27;;;;;;;4.30;3.75;;;;;;;14.68;100.00;95845.28;1031149;28;20431;-69
2021/08/20 01:03:57;;;;;;;5.97;3.70;;;;;;;14.68;100.00;95850.56;1031074;28;20037;-70
2021/08/20 01:04:28;;;;;;;4.75;3.92;;;;;;;14.68;100.00;95850.56;1028208;28;20034;-70
2021/08/20 01:04:58;;;;;;;4.07;3.72;;;;;;;14.67;100.00;95848.22;1035896;28;20030;-69
2021/08/20 01:05:29;;;;;;;4.75;3.75;;;;;;;14.52;100.00;95826.22;1031122;28;20033;-68
2021/08/20 01:06:00;;;;;;;4.65;3.83;;;;;;;14.63;100.00;95848.00;1023331;28;20015;-69
2021/08/20 01:06:31;;;;;;;5.00;3.90;;;;;;;14.56;100.00;95837.78;1022894;28;20031;-71
2021/08/20 01:07:02;;;;;;;4.82;3.95;;;;;;;14.57;100.00;95844.63;1023829;28;20023;-70
2021/08/20 01:07:37;;;;;;;5.70;3.95;;;;;;;14.61;100.00;95847.50;1027752;28;20022;-70
2021/08/20 01:08:07;;;;;;;4.03;3.70;;;;;;;14.64;100.00;95854.84;1034842;28;20026;-70
2021/08/20 01:08:38;;;;;;;5.18;3.97;;;;;;;14.63;100.00;95848.00;1031943;28;20030;-70
2021/08/20 01:09:11;;;;;;;5.22;4.30;;;;;;;14.61;100.00;95844.84;1031283;28;20026;-70
2021/08/20 01:09:42;;;;;;;4.95;4.00;;;;;;;14.60;100.00;95844.06;1026846;28;20023;-70
2021/08/20 01:10:13;;;;;;;6.03;4.47;;;;;;;14.61;100.00;95850.91;1023746;28;20034;-71
2021/08/20 01:10:43;;;;;;;7.10;4.40;;;;;;;14.61;100.00;95850.13;1024171;28;20027;-71
2021/08/20 01:11:14;;;;;;;5.97;4.30;;;;;;;14.63;100.00;95852.50;1030923;28;20056;-69
2021/08/20 01:11:44;;;;;;;4.32;3.70;;;;;;;14.64;100.00;95854.84;1030739;28;20479;-69
2021/08/20 01:12:15;;;;;;;4.30;3.90;;;;;;;14.60;100.00;95853.84;1031206;28;20026;-69
2021/08/20 01:12:48;;;;;;;4.60;4.10;;;;;;;14.45;100.00;95830.25;1031198;28;20026;-69
2021/08/20 01:13:18;;;;;;;4.85;4.35;;;;;;;14.57;100.00;95846.50;1034763;28;20029;-71
2021/08/20 01:13:49;;;;;;;10.50;4.15;;;;;;;14.56;100.00;95847.56;1027092;28;20034;-69
2021/08/20 01:14:30;;;;;;;5.18;3.55;;;;;;;14.57;100.00;95849.13;1027572;28;20415;-70
2021/08/20 01:15:00;;;;;;;10.35;4.78;;;;;;;14.58;100.00;95850.69;1030683;28;20026;-70
2021/08/20 01:15:31;;;;;;;5.78;4.35;;;;;;;14.56;100.00;95852.84;1031257;28;20491;-70
2021/08/20 01:16:02;;;;;;;16.63;4.47;;;;;;;14.54;100.00;95849.69;1032598;28;20042;-70
2021/08/20 01:16:33;;;;;;;7.35;4.50;;;;;;;14.51;100.00;95844.97;1034950;28;20463;-71
2021/08/20 01:17:04;;;;;;;6.35;3.97;;;;;;;14.53;100.00;95853.41;1043493;28;20041;-68
2021/08/20 01:17:35;;;;;;;8.25;4.50;;;;;;;14.53;100.00;95848.13;1039409;28;20470;-69
2021/08/20 01:18:05;;;;;;;8.20;4.32;;;;;;;14.53;100.00;95850.78;1033906;28;20026;-69
2021/08/20 01:18:37;;;;;;;7.47;4.40;;;;;;;14.52;100.00;95851.81;1031507;28;20089;-69
2021/08/20 01:19:08;;;;;;;5.78;4.25;;;;;;;14.49;100.00;95847.13;1035653;28;20117;-70
2021/08/20 01:19:39;;;;;;;5.65;3.55;;;;;;;14.52;100.00;95846.53;1035597;28;20040;-69
2021/08/20 01:20:10;;;;;;;4.60;4.00;;;;;;;14.43;100.00;95838.47;1038906;28;20705;-70
2021/08/20 01:20:40;;;;;;;7.97;4.13;;;;;;;14.51;100.00;95847.63;1039331;28;20465;-70
2021/08/20 01:21:30;;;;;;;4.13;3.72;;;;;;;14.51;100.00;95843.13;1039332;28;20032;-70
2021/08/20 01:22:01;;;;;;;6.63;3.72;;;;;;;14.51;100.00;95839.69;1037175;28;20131;-71
2021/08/20 01:22:31;;;;;;;5.82;3.67;;;;;;;14.50;100.00;95843.41;1035212;28;20145;-71
2021/08/20 01:23:05;;;;;;;5.20;4.07;;;;;;;14.48;100.00;95845.53;1031154;28;20023;-70
2021/08/20 01:23:36;;;;;;;5.35;3.80;;;;;;;14.36;100.00;95836.16;1034490;28;20117;-70
2021/08/20 01:24:07;;;;;;;4.13;3.72;;;;;;;14.42;100.00;95851.94;1019717;29;20035;-70
2021/08/20 01:24:37;;;;;;;4.30;3.90;;;;;;;14.39;100.00;95842.75;1023174;29;20023;-71
2021/08/20 01:25:08;;;;;;;5.30;4.20;;;;;;;14.32;100.00;95840.44;1022798;28;20022;-69
2021/08/20 01:25:38;;;;;;;9.82;4.47;;;;;;;14.36;100.00;95853.88;1023334;28;20031;-69
2021/08/20 01:26:09;;;;;;;6.85;4.00;;;;;;;14.31;100.00;95846.78;1027359;28;20070;-70
2021/08/20 01:26:39;;;;;;;9.30;4.40;;;;;;;14.31;100.00;95844.13;1032346;28;20038;-71
2021/08/20 01:27:10;;;;;;;4.40;4.00;;;;;;;14.26;100.00;95849.50;1039541;28;20410;-70
2021/08/20 01:27:40;;;;;;;4.72;4.22;;;;;;;14.25;100.00;95841.84;1043746;28;20021;-70
2021/08/20 01:28:11;;;;;;;6.72;4.30;;;;;;;14.22;100.00;95845.84;1043631;28;20020;-70
2021/08/20 01:28:41;;;;;;;6.32;4.10;;;;;;;14.21;100.00;95846.91;1035496;28;20495;-70
2021/08/20 01:29:16;;;;;;;5.82;4.65;;;;;;;14.19;100.00;95851.69;1035243;28;20855;-70
2021/08/20 01:29:47;;;;;;;5.70;4.60;;;;;;;14.16;100.00;95844.34;1035275;28;20026;-70
2021/08/20 01:30:17;;;;;;;5.35;4.10;;;;;;;14.11;100.00;95841.75;1036897;28;20514;-70
2021/08/20 01:30:48;;;;;;;8.27;4.50;;;;;;;14.10;100.00;95848.09;1035208;28;20029;-70
2021/08/20 01:31:19;;;;;;;6.47;4.72;;;;;;;14.03;100.00;95835.25;1027048;28;20042;-70
2021/08/20 01:31:49;;;;;;;7.47;4.78;;;;;;;14.05;100.00;95843.69;1023920;28;20154;-70
2021/08/20 01:32:20;;;;;;;5.15;4.25;;;;;;;14.04;100.00;95851.88;1027152;28;20056;-70
2021/08/20 01:32:50;;;;;;;8.73;4.95;;;;;;;14.00;100.00;95845.59;1026721;28;20370;-70
2021/08/20 01:33:20;;;;;;;11.65;4.65;;;;;;;13.98;100.00;95847.72;1026829;28;20341;-69
2021/08/20 01:33:53;;;;;;;5.30;4.15;;;;;;;13.92;100.00;95841.72;1027144;28;20034;-70
2021/08/20 01:34:23;;;;;;;6.43;4.45;;;;;;;13.94;100.00;95844.84;1031756;28;20014;-69
2021/08/20 01:34:54;;;;;;;10.95;4.82;;;;;;;13.87;100.00;95836.50;1039145;28;20543;-70
2021/08/20 01:35:24;;;;;;;7.03;5.05;;;;;;;13.91;100.00;95845.41;1035371;28;20022;-71
2021/08/20 01:35:55;;;;;;;6.90;4.82;;;;;;;13.89;100.00;95840.44;1039251;28;20037;-70
2021/08/20 01:36:26;;;;;;;8.23;5.22;;;;;;;13.88;100.00;95840.69;1035384;28;20089;-70
2021/08/20 01:36:56;;;;;;;7.65;5.18;;;;;;;13.85;100.00;95844.69;1030680;28;20122;-70
2021/08/20 01:37:27;;;;;;;5.85;4.55;;;;;;;13.84;100.00;95843.09;1035233;28;20507;-70
2021/08/20 01:37:57;;;;;;;5.70;4.65;;;;;;;13.83;100.00;95849.44;1031229;28;20054;-70
2021/08/20 01:38:28;;;;;;;4.88;4.47;;;;;;;13.83;100.00;95841.53;1034750;28;20500;-69
2021/08/20 01:38:58;;;;;;;6.63;5.22;;;;;;;13.84;100.00;95848.38;1039108;28;20356;-69
2021/08/20 01:39:29;;;;;;;7.25;4.85;;;;;;;13.83;100.00;95846.81;1035370;28;20021;-69
2021/08/20 01:39:59;;;;;;;5.38;4.65;;;;;;;13.81;100.00;95845.50;1039242;28;20092;-68
2021/08/20 01:40:29;;;;;;;6.88;5.10;;;;;;;13.79;100.00;95850.31;1036279;28;20080;-70
2021/08/20 01:41:00;;;;;;;5.57;5.07;;;;;;;13.66;100.00;95833.28;1035042;28;20029;-70
2021/08/20 01:41:31;;;;;;;7.28;4.93;;;;;;;13.73;100.00;95843.50;1039239;28;20018;-69
2021/08/20 01:42:04;;;;;;;6.22;5.15;;;;;;;13.72;100.00;95848.00;1034269;28;20504;-69
2021/08/20 01:42:34;;;;;;;5.25;4.75;;;;;;;13.68;100.00;95841.69;1035194;28;20060;-70
2021/08/20 01:43:04;;;;;;;5.72;5.10;;;;;;;13.66;100.00;95841.19;1034897;28;20033;-69
2021/08/20 01:43:35;;;;;;;6.90;5.05;;;;;;;13.63;100.00;95844.38;1035561;28;20025;-69
2021/08/20 01:44:05;;;;;;;6.28;5.40;;;;;;;13.60;100.00;95843.09;1041413;28;20032;-70
2021/08/20 01:44:36;;;;;;;6.15;5.28;;;;;;;13.57;100.00;95843.63;1040244;28;20021;-71
2021/08/20 01:45:06;;;;;;;6.78;4.85;;;;;;;13.56;100.00;95842.06;1042172;28;20017;-69
2021/08/20 01:45:37;;;;;;;6.35;5.05;;;;;;;13.56;100.00;95846.56;1042725;28;20020;-70
2021/08/20 01:46:07;;;;;;;6.28;5.72;;;;;;;13.53;100.00;95841.84;1039000;28;20025;-68
2021/08/20 01:46:38;;;;;;;6.78;5.53;;;;;;;13.52;100.00;95840.28;1030808;28;20092;-69
2021/08/20 01:47:10;;;;;;;5.28;4.78;;;;;;;13.51;100.00;95841.34;1030195;28;20018;-69
2021/08/20 01:47:40;;;;;;;6.00;5.32;;;;;;;13.49;100.00;95841.63;1031768;28;20067;-69
2021/08/20 01:48:11;;;;;;;7.25;5.50;;;;;;;13.47;100.00;95837.69;1033735;28;20030;-69
2021/08/20 01:48:45;;;;;;;6.53;5.35;;;;;;;13.47;100.00;95838.47;1035325;28;20053;-69
2021/08/20 01:49:16;;;;;;;8.57;5.60;;;;;;;13.45;100.00;95845.88;1031307;28;20028;-70
2021/08/20 01:49:46;;;;;;;6.13;4.95;;;;;;;13.39;100.00;95837.22;1026870;28;20087;-70
2021/08/20 01:50:17;;;;;;;5.82;4.72;;;;;;;13.41;100.00;95845.66;1023592;28;20015;-69
2021/08/20 01:50:47;;;;;;;6.70;5.05;;;;;;;13.39;100.00;95842.50;1024588;28;20023;-69
2021/08/20 01:51:21;;;;;;;6.35;5.40;;;;;;;13.34;100.00;95839.88;1026760;28;20019;-70
2021/08/20 01:51:51;;;;;;;8.18;5.10;;;;;;;13.33;100.00;95842.81;1028446;28;20019;-69
2021/08/20 01:52:21;;;;;;;5.78;5.18;;;;;;;13.33;100.00;95840.97;1030846;28;20409;-69
2021/08/20 01:52:52;;;;;;;5.85;5.07;;;;;;;13.31;100.00;95845.75;1034933;28;20582;-70
2021/08/20 01:53:22;;;;;;;7.72;5.47;;;;;;;13.29;100.00;95842.59;1034838;28;20487;-70
2021/08/20 01:53:53;;;;;;;12.85;5.35;;;;;;;13.27;100.00;95844.69;1033359;28;20518;-70
2021/08/20 01:54:24;;;;;;;10.88;5.07;;;;;;;13.26;100.00;95840.50;1030980;28;20023;-70
2021/08/20 01:54:54;;;;;;;10.40;5.88;;;;;;;13.25;100.00;95846.84;1026800;28;20305;-70
2021/08/20 01:55:25;;;;;;;6.45;5.22;;;;;;;13.26;100.00;95843.13;1022821;28;20035;-70
2021/08/20 01:55:55;;;;;;;6.90;5.80;;;;;;;13.25;100.00;95844.22;1026252;28;20086;-69
2021/08/20 01:56:30;;;;;;;9.95;6.22;;;;;;;13.23;100.00;95840.25;1026877;28;20053;-69
2021/08/20 01:57:01;;;;;;;8.55;5.28;;;;;;;13.21;100.00;95845.78;1027589;28;20037;-71
2021/08/20 01:57:32;;;;;;;6.25;5.15;;;;;;;13.21;100.00;95849.22;1023045;28;20275;-70
2021/08/20 01:58:03;;;;;;;9.10;5.70;;;;;;;13.18;100.00;95841.09;1023518;28;20038;-69
2021/08/20 01:58:33;;;;;;;10.40;5.60;;;;;;;13.17;100.00;95842.91;1022848;29;20769;-69
2021/08/20 01:59:04;;;;;;;7.07;5.13;;;;;;;13.10;100.00;95834.53;1024190;28;20038;-69
2021/08/20 01:59:35;;;;;;;7.38;5.43;;;;;;;13.15;100.00;95847.69;1022925;28;20046;-69
2021/08/20 02:00:08;;;;;;;7.55;5.50;;;;;;;13.15;100.00;95841.63;1031174;28;20498;-69
2021/08/20 02:00:39;;;;;;;6.32;4.93;;;;;;;13.12;100.00;95842.97;1037820;28;20276;-69
2021/08/20 02:01:10;;;;;;;7.30;5.47;;;;;;;13.11;100.00;95849.31;1035600;28;20273;-69
2021/08/20 02:01:40;;;;;;;6.72;5.18;;;;;;;13.10;100.00;95847.72;1038066;28;20053;-67
2021/08/20 02:02:11;;;;;;;12.15;5.78;;;;;;;13.07;100.00;95839.56;1034720;28;20036;-69
2021/08/20 02:02:41;;;;;;;7.47;6.15;;;;;;;13.10;100.00;95844.28;1030542;28;20089;-69
2021/08/20 02:03:12;;;;;;;8.98;5.82;;;;;;;13.09;100.00;95851.41;1034957;28;20037;-69
2021/08/20 02:03:42;;;;;;;7.07;5.40;;;;;;;12.90;100.00;95817.03;1034891;28;20026;-69
2021/08/20 02:04:12;;;;;;;7.00;5.25;;;;;;;13.08;100.00;95846.44;1038344;28;20025;-70
2021/08/20 02:04:43;;;;;;;7.63;4.90;;;;;;;13.07;100.00;95850.88;1043389;28;20029;-70
2021/08/20 02:05:13;;;;;;;9.02;4.85;;;;;;;13.08;100.00;95851.69;1043498;28;20025;-69
2021/08/20 02:05:44;;;;;;;6.20;5.13;;;;;;;13.06;100.00;95840.63;1043278;28;20025;-69
2021/08/20 02:06:14;;;;;;;5.65;5.10;;;;;;;13.03;100.00;95838.56;1038565;28;20383;-70
2021/08/20 02:06:45;;;;;;;5.22;4.30;;;;;;;13.10;100.00;95846.91;1035041;28;20521;-69
2021/08/20 02:07:15;;;;;;;6.82;4.60;;;;;;;13.10;100.00;95844.28;1034921;28;20082;-70
2021/08/20 02:07:45;;;;;;;5.35;4.85;;;;;;;13.12;100.00;95847.44;1034350;28;20029;-69
2021/08/20 02:08:16;;;;;;;7.45;4.53;;;;;;;13.14;100.00;95845.31;1034574;28;20029;-70
2021/08/20 02:08:46;;;;;;;7.57;5.07;;;;;;;13.14;100.00;95845.31;1030733;28;20034;-70
2021/08/20 02:09:17;;;;;;;5.45;4.95;;;;;;;13.12;100.00;95845.59;1030550;28;20508;-70
2021/08/20 02:09:47;;;;;;;7.03;5.00;;;;;;;13.12;100.00;95842.19;1030819;28;20069;-69
2021/08/20 02:10:18;;;;;;;7.47;4.80;;;;;;;13.12;100.00;95847.44;1038731;28;20041;-70
2021/08/20 02:10:48;;;;;;;5.25;4.75;;;;;;;13.13;100.00;95843.75;1034999;28;20045;-70
2021/08/20 02:11:18;;;;;;;5.60;4.70;;;;;;;13.13;100.00;95843.75;1034614;28;20034;-70
2021/08/20 02:11:50;;;;;;;7.03;4.97;;;;;;;13.12;100.00;95844.81;1030292;28;20034;-69
2021/08/20 02:12:21;;;;;;;5.65;5.07;;;;;;;13.12;100.00;95839.53;1026790;28;20023;-69
2021/08/20 02:12:51;;;;;;;11.10;5.32;;;;;;;13.11;100.00;95851.13;1030500;28;20282;-69
2021/08/20 02:13:22;;;;;;;6.45;5.25;;;;;;;13.10;100.00;95839.03;1031309;28;20056;-69
2021/08/20 02:13:53;;;;;;;9.05;5.53;;;;;;;13.11;100.00;95845.84;1034918;28;20137;-69
2021/08/20 02:14:23;;;;;;;6.05;5.38;;;;;;;13.09;100.00;95843.50;1035490;28;20060;-69
2021/08/20 02:14:53;;;;;;;8.23;5.13;;;;;;;13.09;100.00;95840.09;1039647;28;20017;-71
2021/08/20 02:15:24;;;;;;;9.98;5.28;;;;;;;13.10;100.00;95844.28;1039448;28;20021;-69
2021/08/20 02:15:54;;;;;;;7.07;5.18;;;;;;;13.10;100.00;95841.66;1040037;28;20022;-70
2021/08/20 02:16:25;;;;;;;9.75;5.15;;;;;;;13.09;100.00;95838.25;1041408;28;20580;-70
2021/08/20 02:16:55;;;;;;;9.38;5.45;;;;;;;13.08;100.00;95843.78;1035463;28;20492;-70
2021/08/20 02:17:26;;;;;;;6.05;5.20;;;;;;;13.09;100.00;95840.09;1035931;28;20026;-70
2021/08/20 02:17:56;;;;;;;8.13;5.63;;;;;;;13.08;100.00;95841.94;1036868;28;20080;-70
2021/08/20 02:18:27;;;;;;;6.50;5.85;;;;;;;13.07;100.00;95836.94;1035515;28;20691;-70
2021/08/20 02:18:57;;;;;;;6.90;5.70;;;;;;;13.06;100.00;95841.41;1035017;28;20010;-70
2021/08/20 02:19:28;;;;;;;6.93;6.20;;;;;;;13.05;100.00;95839.06;1031509;28;20485;-70
2021/08/20 02:19:58;;;;;;;6.78;5.75;;;;;;;13.03;100.00;95835.91;1038648;28;20021;-70
2021/08/20 02:20:28;;;;;;;6.28;5.50;;;;;;;13.02;100.00;95842.25;1035241;28;20377;-70
2021/08/20 02:20:59;;;;;;;6.78;5.80;;;;;;;13.03;100.00;95841.19;1038892;28;20034;-70
2021/08/20 02:21:29;;;;;;;7.60;5.53;;;;;;;13.03;100.00;95843.81;1039140;28;20025;-69
2021/08/20 02:22:00;;;;;;;7.45;5.78;;;;;;;13.03;100.00;95843.81;1038084;28;20022;-69
2021/08/20 02:22:30;;;;;;;8.18;5.72;;;;;;;13.02;100.00;95842.25;1038849;28;20112;-70
2021/08/20 02:23:01;;;;;;;7.30;5.72;;;;;;;13.02;100.00;95844.88;1038945;28;20341;-69
2021/08/20 02:23:34;;;;;;;9.68;6.13;;;;;;;12.97;100.00;95841.22;1043084;28;20091;-70